createdAt,value
2022-08-02T00:00:44.339Z,96.70
2022-08-02T00:03:12.439Z,96.70
2022-08-02T00:05:40.900Z,96.70
2022-08-02T00:08:09.080Z,96.70
2022-08-02T00:10:39.219Z,96.70
2022-08-02T00:13:07.321Z,96.70
2022-08-02T00:15:35.401Z,96.70
2022-08-02T00:18:03.844Z,96.70
2022-08-02T00:20:32.199Z,96.70
2022-08-02T00:23:00.200Z,96.70
2022-08-02T00:25:28.430Z,96.70
2022-08-02T00:27:58.039Z,96.70
2022-08-02T00:30:26.400Z,96.70
2022-08-02T00:32:54.590Z,96.70
2022-08-02T00:35:22.879Z,96.70
2022-08-02T00:37:50.978Z,96.70
2022-08-02T00:40:23.829Z,96.70
2022-08-02T00:43:09.035Z,96.70
2022-08-02T00:46:02.047Z,96.70
2022-08-02T00:48:27.106Z,96.70
2022-08-02T00:50:56.807Z,96.70
2022-08-02T00:53:24.935Z,96.70
2022-08-02T00:55:52.985Z,96.70
2022-08-02T00:58:22.676Z,96.70
2022-08-02T01:00:54.446Z,96.70
2022-08-02T01:03:22.875Z,96.70
2022-08-02T01:06:09.931Z,96.70
2022-08-02T01:08:39.115Z,96.70
2022-08-02T01:11:07.487Z,96.70
2022-08-02T01:13:37.625Z,96.70
2022-08-02T01:16:15.176Z,96.70
2022-08-02T01:18:46.127Z,96.70
2022-08-02T01:21:48.197Z,96.70
2022-08-02T01:24:33.284Z,96.70
2022-08-02T01:27:11.565Z,96.70
2022-08-02T01:29:45.845Z,96.70
2022-08-02T01:32:18.238Z,96.70
2022-08-02T01:34:51.584Z,96.70
2022-08-02T01:37:22.894Z,96.70
2022-08-02T01:39:55.120Z,96.70
2022-08-02T01:42:25.334Z,96.70
2022-08-02T01:44:55.844Z,96.70
2022-08-02T01:47:27.996Z,96.70
2022-08-02T01:49:59.484Z,96.70
2022-08-02T01:52:31.674Z,96.70
2022-08-02T01:55:03.386Z,96.70
2022-08-02T01:57:35.255Z,96.70
2022-08-02T02:00:13.356Z,96.70
2022-08-02T02:02:45.161Z,96.70
2022-08-02T02:05:17.136Z,96.70
2022-08-02T02:07:46.985Z,96.70
2022-08-02T02:10:16.440Z,96.70
2022-08-02T02:12:48.245Z,96.70
2022-08-02T02:15:18.464Z,96.70
2022-08-02T02:18:11.799Z,96.70
2022-08-02T02:23:09.177Z,96.70
2022-08-02T02:25:41.764Z,96.70
2022-08-02T02:28:22.364Z,96.70
2022-08-02T02:30:55.745Z,96.70
2022-08-02T02:33:29.036Z,96.70
2022-08-02T02:35:59.865Z,96.70
2022-08-02T02:38:32.397Z,96.70
2022-08-02T02:41:02.454Z,96.70
2022-08-02T02:43:32.766Z,96.70
2022-08-02T02:46:04.026Z,96.70
2022-08-02T02:48:32.725Z,96.70
2022-08-02T02:51:04.195Z,96.70
2022-08-02T02:54:30.715Z,96.70
2022-08-02T02:56:26.064Z,96.70
2022-08-02T02:58:54.937Z,96.70
2022-08-02T03:01:55.562Z,96.70
2022-08-02T03:04:22.745Z,96.70
2022-08-02T03:06:50.624Z,96.70
2022-08-02T03:09:18.544Z,96.70
2022-08-02T03:11:47.389Z,96.70
2022-08-02T03:14:15.756Z,96.70
2022-08-02T03:16:47.184Z,96.70
2022-08-02T03:19:16.119Z,96.70
2022-08-02T03:21:44.436Z,96.70
2022-08-02T03:24:12.804Z,96.70
2022-08-02T03:26:41.306Z,96.70
2022-08-02T03:29:11.123Z,96.70
2022-08-02T03:31:42.013Z,96.70
2022-08-02T03:34:11.656Z,96.70
2022-08-02T03:36:40.595Z,96.70
2022-08-02T03:39:09.415Z,96.70
2022-08-02T03:41:38.425Z,96.70
2022-08-02T03:44:08.066Z,96.70
2022-08-02T03:46:39.676Z,96.70
2022-08-02T03:49:09.485Z,96.70
2022-08-02T03:51:39.165Z,96.70
2022-08-02T03:54:07.491Z,96.70
2022-08-02T03:56:35.508Z,96.70
2022-08-02T03:59:08.366Z,96.70
2022-08-02T04:01:36.397Z,96.70
2022-08-02T04:04:04.524Z,96.70
2022-08-02T04:06:32.697Z,96.70
2022-08-02T04:09:01.925Z,96.70
2022-08-02T04:11:32.586Z,96.70
2022-08-02T04:14:02.186Z,96.70
2022-08-02T04:16:37.857Z,96.70
2022-08-02T04:19:09.086Z,96.70
2022-08-02T04:21:51.432Z,96.70
2022-08-02T04:24:28.059Z,96.70
2022-08-02T04:27:01.133Z,96.70
2022-08-02T04:29:36.972Z,96.70
2022-08-02T04:32:07.180Z,96.70
2022-08-02T04:34:35.136Z,96.70
2022-08-02T04:37:03.264Z,96.70
2022-08-02T04:39:32.640Z,96.70
2022-08-02T04:42:03.623Z,96.70
2022-08-02T04:44:32.039Z,96.70
2022-08-02T04:47:06.715Z,96.70
2022-08-02T04:49:35.429Z,96.70
2022-08-02T04:52:03.930Z,96.70
2022-08-02T04:54:33.971Z,96.70
2022-08-02T04:57:02.443Z,96.70
2022-08-02T04:59:30.953Z,96.70
2022-08-02T05:01:59.354Z,96.70
2022-08-02T05:04:27.705Z,96.70
2022-08-02T05:06:55.925Z,96.70
2022-08-02T05:09:24.334Z,96.70
2022-08-02T05:11:55.238Z,96.70
2022-08-02T05:14:23.695Z,96.70
2022-08-02T05:16:52.099Z,96.70
2022-08-02T05:19:20.553Z,96.70
2022-08-02T05:21:48.851Z,96.70
2022-08-02T05:24:17.326Z,96.70
2022-08-02T05:26:45.683Z,96.70
2022-08-02T05:29:15.603Z,96.70
2022-08-02T05:31:46.171Z,96.70
2022-08-02T05:34:14.903Z,96.70
2022-08-02T05:36:43.393Z,96.70
2022-08-02T05:39:18.699Z,96.70
2022-08-02T05:41:47.674Z,96.70
2022-08-02T05:44:17.562Z,96.70
2022-08-02T05:46:45.902Z,96.70
2022-08-02T05:49:16.545Z,96.70
2022-08-02T05:51:53.259Z,96.70
2022-08-02T05:54:28.090Z,96.70
2022-08-02T05:57:02.475Z,96.70
2022-08-02T05:59:37.281Z,96.70
2022-08-02T06:02:12.924Z,96.70
2022-08-02T06:04:49.344Z,96.70
2022-08-02T06:07:22.628Z,96.70
2022-08-02T06:09:52.183Z,96.70
2022-08-02T06:12:21.345Z,96.70
2022-08-02T06:14:54.567Z,96.70
2022-08-02T06:17:24.543Z,96.70
2022-08-02T06:19:57.922Z,96.70
2022-08-02T06:22:32.598Z,96.70
2022-08-02T06:25:06.447Z,96.70
2022-08-02T06:27:40.473Z,96.70
2022-08-02T06:30:11.964Z,96.70
2022-08-02T06:32:40.848Z,96.70
2022-08-02T06:35:09.823Z,96.70
2022-08-02T06:37:41.859Z,96.70
2022-08-02T06:40:21.652Z,96.70
2022-08-02T06:42:52.378Z,96.70
2022-08-02T06:45:23.831Z,96.70
2022-08-02T06:47:52.231Z,96.70
2022-08-02T06:50:20.689Z,96.70
2022-08-02T06:52:50.006Z,96.70
2022-08-02T06:55:18.363Z,96.70
2022-08-02T07:00:15.656Z,96.70
2022-08-02T07:02:45.837Z,96.70
2022-08-02T07:05:14.206Z,96.70
2022-08-02T07:07:42.743Z,96.70
2022-08-02T07:10:11.395Z,96.70
2022-08-02T07:12:39.843Z,96.70
2022-08-02T07:15:10.496Z,96.70
2022-08-02T07:17:38.985Z,96.70
2022-08-02T07:20:10.526Z,96.70
2022-08-02T07:22:39.046Z,96.70
2022-08-02T07:25:07.753Z,96.70
2022-08-02T07:27:36.233Z,96.70
2022-08-02T07:30:05.907Z,96.70
2022-08-02T07:32:34.483Z,96.70
2022-08-02T07:35:06.704Z,96.70
2022-08-02T07:37:54.617Z,96.70
2022-08-02T07:40:25.416Z,96.70
2022-08-02T07:42:59.214Z,96.70
2022-08-02T07:45:31.594Z,96.70
2022-08-02T07:47:59.948Z,96.70
2022-08-02T07:50:28.863Z,96.70
2022-08-02T07:52:58.706Z,96.70
2022-08-02T07:55:39.418Z,96.70
2022-08-02T07:58:11.113Z,96.70
2022-08-02T08:00:42.715Z,96.70
2022-08-02T08:03:11.503Z,96.70
2022-08-02T08:08:17.558Z,96.70
2022-08-02T08:13:20.086Z,96.70
2022-08-02T08:15:51.806Z,96.70
2022-08-02T08:18:22.433Z,96.70
2022-08-02T08:20:52.136Z,96.70
2022-08-02T08:23:22.287Z,96.70
2022-08-02T08:25:50.856Z,96.70
2022-08-02T08:28:19.176Z,96.70
2022-08-02T08:30:50.591Z,96.70
2022-08-02T08:33:19.057Z,96.70
2022-08-02T08:35:47.565Z,96.70
2022-08-02T08:38:16.493Z,96.70
2022-08-02T08:40:47.484Z,96.70
2022-08-02T08:43:22.399Z,96.70
2022-08-02T08:45:56.210Z,96.70
2022-08-02T08:48:30.482Z,96.70
2022-08-02T08:51:06.027Z,96.70
2022-08-02T08:53:40.549Z,96.70
2022-08-02T08:56:16.041Z,96.70
2022-08-02T08:58:45.560Z,96.70
2022-08-02T09:01:15.285Z,96.70
2022-08-02T09:03:44.167Z,96.70
2022-08-02T09:06:12.169Z,96.70
2022-08-02T09:08:40.121Z,96.70
2022-08-02T09:11:15.877Z,96.70
2022-08-02T09:13:52.659Z,96.70
2022-08-02T09:16:34.980Z,96.70
2022-08-02T09:19:17.999Z,96.70
2022-08-02T09:21:46.428Z,96.70
2022-08-02T09:24:19.059Z,96.70
2022-08-02T09:26:49.537Z,96.70
2022-08-02T09:29:19.718Z,96.70
2022-08-02T09:31:50.256Z,96.70
2022-08-02T09:34:19.827Z,96.70
2022-08-02T09:36:48.762Z,96.70
2022-08-02T09:39:24.109Z,96.70
2022-08-02T09:41:53.529Z,96.70
2022-08-02T09:44:21.508Z,96.70
2022-08-02T09:46:49.779Z,96.70
2022-08-02T09:49:19.282Z,96.70
2022-08-02T09:51:51.168Z,96.70
2022-08-02T09:54:21.568Z,96.70
2022-08-02T09:56:50.977Z,96.70
2022-08-02T09:59:25.209Z,96.70
2022-08-02T10:02:01.441Z,96.70
2022-08-02T10:04:34.159Z,96.70
2022-08-02T10:07:04.727Z,96.70
2022-08-02T10:09:33.527Z,96.70
2022-08-02T10:12:03.348Z,96.70
2022-08-02T10:14:35.647Z,96.70
2022-08-02T10:17:05.417Z,96.70
2022-08-02T10:20:00.121Z,96.70
2022-08-02T10:22:24.607Z,96.70
2022-08-02T10:24:55.400Z,96.70
2022-08-02T10:27:26.312Z,96.70
2022-08-02T10:29:58.240Z,96.70
2022-08-02T10:32:29.700Z,96.70
2022-08-02T10:35:02.743Z,96.70
2022-08-02T10:37:51.835Z,96.70
2022-08-02T10:40:28.564Z,96.70
2022-08-02T10:43:00.939Z,96.70
2022-08-02T10:45:30.617Z,96.70
2022-08-02T10:48:06.426Z,96.70
2022-08-02T10:51:03.010Z,96.70
2022-08-02T10:53:32.176Z,96.70
2022-08-02T10:56:02.569Z,96.70
2022-08-02T10:58:32.909Z,96.70
2022-08-02T11:01:26.991Z,96.70
2022-08-02T11:04:10.478Z,96.70
2022-08-02T11:07:11.666Z,96.10
2022-08-02T11:09:40.421Z,96.50
2022-08-02T11:12:10.251Z,95.60
2022-08-02T11:14:40.253Z,94.50
2022-08-02T11:17:12.947Z,94.10
2022-08-02T11:20:16.277Z,93.40
2022-08-02T11:22:46.571Z,92.50
2022-08-02T11:26:02.050Z,91.50
2022-08-02T11:28:25.490Z,91.00
2022-08-02T11:30:59.227Z,91.60
2022-08-02T11:33:37.189Z,92.80
2022-08-02T11:36:07.682Z,91.80
2022-08-02T11:38:36.448Z,90.30
2022-08-02T11:41:09.573Z,91.10
2022-08-02T11:43:39.009Z,91.30
2022-08-02T11:46:14.626Z,91.90
2022-08-02T11:48:44.815Z,91.10
2022-08-02T11:51:14.670Z,90.20
2022-08-02T11:53:45.231Z,90.10
2022-08-02T11:56:14.457Z,91.00
2022-08-02T11:59:06.659Z,90.20
2022-08-02T12:01:45.626Z,89.50
2022-08-02T12:04:18.550Z,88.80
2022-08-02T12:06:58.712Z,89.50
2022-08-02T12:09:28.789Z,89.20
2022-08-02T12:11:57.639Z,87.80
2022-08-02T12:14:27.021Z,88.10
2022-08-02T12:17:14.091Z,88.10
2022-08-02T12:19:44.370Z,88.30
2022-08-02T12:22:16.713Z,86.60
2022-08-02T12:24:48.090Z,85.40
2022-08-02T12:27:33.721Z,83.70
2022-08-02T12:30:04.821Z,83.40
2022-08-02T12:32:33.140Z,83.90
2022-08-02T12:35:10.041Z,84.00
2022-08-02T12:37:40.048Z,82.10
2022-08-02T12:40:25.061Z,82.30
2022-08-02T12:45:40.813Z,82.80
2022-08-02T12:48:09.909Z,82.10
2022-08-02T12:50:39.837Z,79.70
2022-08-02T12:53:10.157Z,80.40
2022-08-02T12:56:00.913Z,80.20
2022-08-02T12:58:46.846Z,79.50
2022-08-02T13:01:22.003Z,79.40
2022-08-02T13:04:10.697Z,79.90
2022-08-02T13:06:43.914Z,80.50
2022-08-02T13:09:15.469Z,79.90
2022-08-02T13:11:44.121Z,80.60
2022-08-02T13:14:13.431Z,79.70
2022-08-02T13:16:44.983Z,79.30
2022-08-02T13:19:22.156Z,79.90
2022-08-02T13:22:01.995Z,77.00
2022-08-02T13:24:38.135Z,76.80
2022-08-02T13:27:10.665Z,77.80
2022-08-02T13:29:38.854Z,77.20
2022-08-02T13:32:07.299Z,77.00
2022-08-02T13:34:35.640Z,76.90
2022-08-02T13:37:05.258Z,77.80
2022-08-02T13:39:33.447Z,77.70
2022-08-02T13:42:02.358Z,77.70
2022-08-02T13:44:30.387Z,77.60
2022-08-02T13:46:58.397Z,77.20
2022-08-02T13:49:51.290Z,78.00
2022-08-02T13:52:16.593Z,78.40
2022-08-02T13:54:45.117Z,78.20
2022-08-02T13:57:13.077Z,78.60
2022-08-02T13:59:55.798Z,78.40
2022-08-02T14:02:28.449Z,77.60
2022-08-02T14:04:57.199Z,78.40
2022-08-02T14:07:26.547Z,79.40
2022-08-02T14:09:54.369Z,79.20
2022-08-02T14:12:24.409Z,78.70
2022-08-02T14:14:52.549Z,77.80
2022-08-02T14:17:20.386Z,78.50
2022-08-02T14:19:48.421Z,77.30
2022-08-02T14:22:16.304Z,77.20
2022-08-02T14:24:45.937Z,76.60
2022-08-02T14:27:13.862Z,76.50
2022-08-02T14:29:41.968Z,76.40
2022-08-02T14:32:10.312Z,76.80
2022-08-02T14:34:38.593Z,76.20
2022-08-02T14:37:06.425Z,76.30
2022-08-02T14:40:00.462Z,76.90
2022-08-02T14:42:28.987Z,75.80
2022-08-02T14:45:08.121Z,75.40
2022-08-02T14:47:35.919Z,74.60
2022-08-02T14:50:04.559Z,74.80
2022-08-02T14:52:32.534Z,73.90
2022-08-02T14:55:02.956Z,73.40
2022-08-02T14:57:30.764Z,73.60
2022-08-02T15:00:00.876Z,73.30
2022-08-02T15:02:28.805Z,72.10
2022-08-02T15:04:56.720Z,71.90
2022-08-02T15:07:24.679Z,71.70
2022-08-02T15:09:52.716Z,71.30
2022-08-02T15:12:22.170Z,70.70
2022-08-02T15:14:50.029Z,71.10
2022-08-02T15:17:18.048Z,72.00
2022-08-02T15:19:56.417Z,70.30
2022-08-02T15:22:27.264Z,69.50
2022-08-02T15:24:57.324Z,70.50
2022-08-02T15:27:26.607Z,69.90
2022-08-02T15:30:00.779Z,71.60
2022-08-02T15:32:29.028Z,70.40
2022-08-02T15:34:56.818Z,69.80
2022-08-02T15:37:25.331Z,70.50
2022-08-02T15:39:53.337Z,69.90
2022-08-02T15:42:21.261Z,69.80
2022-08-02T15:45:00.573Z,68.00
2022-08-02T15:47:28.583Z,67.80
2022-08-02T15:49:56.619Z,67.10
2022-08-02T15:52:26.784Z,69.00
2022-08-02T15:54:55.175Z,69.90
2022-08-02T15:57:25.800Z,69.90
2022-08-02T15:59:54.290Z,65.80
2022-08-02T16:02:23.909Z,65.10
2022-08-02T16:04:52.020Z,65.50
2022-08-02T16:07:19.876Z,65.00
2022-08-02T16:09:47.829Z,65.40
2022-08-02T16:12:16.155Z,64.80
2022-08-02T16:14:45.372Z,64.40
2022-08-02T16:17:13.210Z,63.80
2022-08-02T16:19:49.495Z,64.20
2022-08-02T16:22:19.463Z,63.50
2022-08-02T16:24:48.839Z,63.40
2022-08-02T16:27:16.836Z,63.00
2022-08-02T16:29:45.045Z,63.60
2022-08-02T16:32:15.298Z,63.10
2022-08-02T16:35:08.670Z,62.90
2022-08-02T16:37:51.953Z,62.20
2022-08-02T16:40:21.034Z,64.70
2022-08-02T16:42:50.562Z,66.40
2022-08-02T16:45:21.051Z,66.90
2022-08-02T16:47:56.170Z,67.80
2022-08-02T16:50:29.712Z,68.00
2022-08-02T16:52:59.014Z,68.40
2022-08-02T16:55:29.318Z,68.60
2022-08-02T16:58:01.248Z,68.70
2022-08-02T17:00:29.988Z,68.90
2022-08-02T17:02:59.123Z,69.70
2022-08-02T17:05:37.841Z,71.40
2022-08-02T17:08:19.953Z,69.70
2022-08-02T17:10:48.904Z,71.80
2022-08-02T17:13:17.378Z,70.10
2022-08-02T17:16:00.957Z,68.00
2022-08-02T17:18:42.483Z,66.30
2022-08-02T17:21:13.162Z,65.00
2022-08-02T17:24:04.478Z,64.20
2022-08-02T17:26:30.231Z,64.00
2022-08-02T17:29:17.548Z,64.00
2022-08-02T17:32:05.201Z,64.00
2022-08-02T17:34:35.698Z,63.20
2022-08-02T17:37:06.441Z,63.40
2022-08-02T17:39:44.198Z,63.40
2022-08-02T17:42:23.464Z,63.70
2022-08-02T17:44:53.911Z,64.40
2022-08-02T17:47:22.810Z,64.80
2022-08-02T17:49:59.941Z,67.40
2022-08-02T17:52:50.633Z,69.90
2022-08-02T17:55:20.692Z,71.20
2022-08-02T17:57:55.631Z,72.10
2022-08-02T18:00:26.935Z,71.20
2022-08-02T18:02:55.909Z,72.50
2022-08-02T18:05:41.564Z,72.60
2022-08-02T18:08:17.250Z,73.20
2022-08-02T18:10:49.546Z,73.50
2022-08-02T18:13:18.087Z,73.80
2022-08-02T18:15:46.544Z,74.30
2022-08-02T18:18:15.288Z,74.90
2022-08-02T18:20:44.258Z,74.30
2022-08-02T18:23:14.173Z,74.30
2022-08-02T18:25:46.716Z,74.80
2022-08-02T18:28:17.107Z,75.30
2022-08-02T18:30:45.505Z,75.90
2022-08-02T18:33:58.147Z,77.10
2022-08-02T18:36:01.942Z,77.20
2022-08-02T18:38:31.946Z,78.10
2022-08-02T18:41:02.951Z,77.80
2022-08-02T18:43:34.506Z,77.80
2022-08-02T18:46:15.868Z,78.40
2022-08-02T18:48:46.580Z,77.80
2022-08-02T18:51:16.393Z,78.30
2022-08-02T18:53:54.318Z,78.20
2022-08-02T18:56:24.622Z,78.10
2022-08-02T18:58:54.658Z,78.50
2022-08-02T19:04:15.718Z,79.30
2022-08-02T19:07:03.989Z,80.50
2022-08-02T19:09:40.155Z,80.80
2022-08-02T19:12:11.986Z,80.80
2022-08-02T19:14:42.105Z,80.70
2022-08-02T19:17:53.047Z,80.70
2022-08-02T19:19:59.519Z,81.20
2022-08-02T19:22:29.752Z,81.30
2022-08-02T19:25:01.374Z,81.80
2022-08-02T19:27:32.484Z,82.30
2022-08-02T19:30:02.674Z,83.40
2022-08-02T19:32:41.591Z,83.40
2022-08-02T19:35:30.467Z,83.90
2022-08-02T19:38:07.884Z,84.20
2022-08-02T19:40:42.958Z,84.80
2022-08-02T19:44:26.074Z,85.20
2022-08-02T19:46:00.652Z,85.30
2022-08-02T19:48:29.185Z,86.10
2022-08-02T19:51:01.182Z,86.90
2022-08-02T19:53:46.557Z,86.80
2022-08-02T19:56:25.081Z,87.10
2022-08-02T19:58:54.671Z,87.30
2022-08-02T20:01:28.425Z,87.30
2022-08-02T20:04:07.630Z,87.20
2022-08-02T20:06:45.183Z,87.30
2022-08-02T20:09:16.604Z,87.90
2022-08-02T20:11:54.289Z,88.50
2022-08-02T20:14:27.248Z,88.80
2022-08-02T20:16:57.113Z,90.60
2022-08-02T20:19:29.147Z,91.20
2022-08-02T20:22:00.531Z,91.90
2022-08-02T20:24:30.427Z,92.10
2022-08-02T20:27:02.032Z,91.30
2022-08-02T20:29:43.381Z,92.20
2022-08-02T20:32:22.766Z,91.90
2022-08-02T20:34:52.843Z,92.60
2022-08-02T20:37:59.688Z,92.30
2022-08-02T20:40:16.867Z,93.20
2022-08-02T20:42:48.625Z,92.40
2022-08-02T20:45:17.503Z,93.30
2022-08-02T20:47:50.801Z,94.60
2022-08-02T20:50:37.738Z,94.80
2022-08-02T20:53:05.603Z,96.50
2022-08-02T20:55:34.102Z,94.80
2022-08-02T20:58:04.758Z,95.00
2022-08-02T21:00:33.591Z,94.60
2022-08-02T21:03:02.629Z,94.70
2022-08-02T21:05:43.539Z,95.50
2022-08-02T21:08:16.511Z,95.90
2022-08-02T21:10:50.831Z,95.40
2022-08-02T21:13:26.301Z,96.30
2022-08-02T21:15:56.426Z,96.20
2022-08-02T21:18:35.187Z,96.60
2022-08-02T21:21:10.831Z,95.50
2022-08-02T21:23:49.019Z,95.10
2022-08-02T21:26:28.390Z,95.40
2022-08-02T21:29:03.563Z,94.80
2022-08-02T21:31:36.689Z,95.60
2022-08-02T21:34:21.558Z,95.70
2022-08-02T21:36:51.938Z,95.30
2022-08-02T21:39:20.656Z,95.40
2022-08-02T21:41:48.948Z,94.60
2022-08-02T21:44:19.728Z,95.50
2022-08-02T21:46:49.977Z,95.60
2022-08-02T21:49:20.069Z,96.00
2022-08-02T21:51:49.008Z,96.70
2022-08-02T21:54:20.221Z,96.70
2022-08-02T21:56:52.292Z,96.70
2022-08-02T21:59:25.782Z,96.70
2022-08-02T22:01:56.712Z,96.70
2022-08-02T22:04:25.830Z,96.70
2022-08-02T22:06:55.061Z,96.70
2022-08-02T22:09:43.568Z,96.70
2022-08-02T22:12:16.541Z,96.70
2022-08-02T22:14:53.880Z,96.70
2022-08-02T22:17:51.235Z,96.70
2022-08-02T22:20:14.504Z,96.70
2022-08-02T22:22:43.432Z,96.70
2022-08-02T22:25:21.502Z,96.70
2022-08-02T22:28:36.225Z,96.70
2022-08-02T22:30:45.040Z,96.70
2022-08-02T22:33:42.104Z,96.70
2022-08-02T22:36:14.772Z,96.70
2022-08-02T22:38:50.022Z,96.70
2022-08-02T22:41:18.825Z,96.70
2022-08-02T22:43:48.399Z,96.70
2022-08-02T22:46:19.093Z,96.70
2022-08-02T22:48:54.719Z,96.70
2022-08-02T22:51:22.464Z,96.70
2022-08-02T22:53:50.277Z,96.70
2022-08-02T22:56:17.949Z,96.70
2022-08-02T22:58:59.843Z,78.90
2022-08-02T23:01:34.910Z,96.70
2022-08-02T23:04:02.548Z,96.70
2022-08-02T23:06:30.528Z,96.70
2022-08-02T23:08:58.253Z,96.70
2022-08-02T23:11:25.997Z,96.70
2022-08-02T23:13:53.876Z,96.70
2022-08-02T23:16:40.337Z,96.70
2022-08-02T23:19:28.303Z,96.70
2022-08-02T23:22:01.348Z,96.70
2022-08-02T23:24:30.656Z,96.70
2022-08-02T23:26:58.280Z,96.70
2022-08-02T23:29:26.559Z,96.70
2022-08-02T23:31:54.426Z,96.70
2022-08-02T23:34:24.195Z,96.70
2022-08-02T23:36:51.882Z,96.70
2022-08-02T23:39:19.722Z,96.70
2022-08-02T23:41:54.944Z,96.70
2022-08-02T23:44:24.086Z,96.70
2022-08-02T23:46:52.342Z,96.70
2022-08-02T23:49:20.421Z,96.70
2022-08-02T23:51:50.571Z,96.70
2022-08-02T23:54:19.269Z,96.70
2022-08-02T23:56:47.409Z,96.70
2022-08-02T23:59:15.678Z,96.70
